sensor_id;sensor_type;location;lat;lon;timestamp;P1;durP1;ratioP1;P2;durP2;ratioP2
297;SDS011;133;49.626;9.680;2022-09-03T00:01:18;2.90;;;2.70;;
297;SDS011;133;49.626;9.680;2022-09-03T00:03:48;2.97;;;2.53;;
297;SDS011;133;49.626;9.680;2022-09-03T00:06:22;2.87;;;2.67;;
297;SDS011;133;49.626;9.680;2022-09-03T00:17:02;2.70;;;2.50;;
297;SDS011;133;49.626;9.680;2022-09-03T00:19:35;4.73;;;2.90;;
297;SDS011;133;49.626;9.680;2022-09-03T00:22:13;3.10;;;2.60;;
297;SDS011;133;49.626;9.680;2022-09-03T00:24:43;2.90;;;2.70;;
297;SDS011;133;49.626;9.680;2022-09-03T00:27:14;2.90;;;2.70;;
297;SDS011;133;49.626;9.680;2022-09-03T00:29:51;3.00;;;2.80;;
297;SDS011;133;49.626;9.680;2022-09-03T00:32:28;2.80;;;2.60;;
297;SDS011;133;49.626;9.680;2022-09-03T00:35:09;2.90;;;2.70;;
297;SDS011;133;49.626;9.680;2022-09-03T00:37:40;3.70;;;2.90;;
297;SDS011;133;49.626;9.680;2022-09-03T00:40:11;3.10;;;2.90;;
297;SDS011;133;49.626;9.680;2022-09-03T00:43:07;3.60;;;2.90;;
297;SDS011;133;49.626;9.680;2022-09-03T00:52:10;3.90;;;2.63;;
297;SDS011;133;49.626;9.680;2022-09-03T00:57:51;3.43;;;2.83;;
297;SDS011;133;49.626;9.680;2022-09-03T01:00:29;2.90;;;2.77;;
297;SDS011;133;49.626;9.680;2022-09-03T01:05:42;3.10;;;2.90;;
297;SDS011;133;49.626;9.680;2022-09-03T01:13:59;3.83;;;2.83;;
297;SDS011;133;49.626;9.680;2022-09-03T01:16:49;3.23;;;3.00;;
297;SDS011;133;49.626;9.680;2022-09-03T01:28:32;3.47;;;3.27;;
297;SDS011;133;49.626;9.680;2022-09-03T01:34:09;4.33;;;3.07;;
297;SDS011;133;49.626;9.680;2022-09-03T01:37:07;3.77;;;3.07;;
297;SDS011;133;49.626;9.680;2022-09-03T01:45:22;2.93;;;2.73;;
297;SDS011;133;49.626;9.680;2022-09-03T01:48:17;6.03;;;3.30;;
297;SDS011;133;49.626;9.680;2022-09-03T01:53:56;6.27;;;2.93;;
297;SDS011;133;49.626;9.680;2022-09-03T01:59:36;3.17;;;3.00;;
297;SDS011;133;49.626;9.680;2022-09-03T02:02:13;3.10;;;2.90;;
297;SDS011;133;49.626;9.680;2022-09-03T02:07:49;3.27;;;3.10;;
297;SDS011;133;49.626;9.680;2022-09-03T02:10:24;3.40;;;3.20;;
297;SDS011;133;49.626;9.680;2022-09-03T02:13:06;2.83;;;2.63;;
297;SDS011;133;49.626;9.680;2022-09-03T02:15:35;3.30;;;3.10;;
297;SDS011;133;49.626;9.680;2022-09-03T02:18:05;3.03;;;2.83;;
297;SDS011;133;49.626;9.680;2022-09-03T02:20:37;3.37;;;3.17;;
297;SDS011;133;49.626;9.680;2022-09-03T02:23:03;3.40;;;3.20;;
297;SDS011;133;49.626;9.680;2022-09-03T02:25:31;3.07;;;2.87;;
297;SDS011;133;49.626;9.680;2022-09-03T02:28:02;3.90;;;3.20;;
297;SDS011;133;49.626;9.680;2022-09-03T02:30:30;3.30;;;3.10;;
297;SDS011;133;49.626;9.680;2022-09-03T02:32:56;3.13;;;2.93;;
297;SDS011;133;49.626;9.680;2022-09-03T02:35:22;3.33;;;3.20;;
297;SDS011;133;49.626;9.680;2022-09-03T02:37:48;3.40;;;3.20;;
297;SDS011;133;49.626;9.680;2022-09-03T02:40:14;3.43;;;3.23;;
297;SDS011;133;49.626;9.680;2022-09-03T02:42:41;3.03;;;2.83;;
297;SDS011;133;49.626;9.680;2022-09-03T02:45:28;3.13;;;2.93;;
297;SDS011;133;49.626;9.680;2022-09-03T02:47:54;4.30;;;3.30;;
297;SDS011;133;49.626;9.680;2022-09-03T02:50:21;7.00;;;3.07;;
297;SDS011;133;49.626;9.680;2022-09-03T02:52:47;3.10;;;2.90;;
297;SDS011;133;49.626;9.680;2022-09-03T02:55:13;3.17;;;3.00;;
297;SDS011;133;49.626;9.680;2022-09-03T02:57:39;3.03;;;2.83;;
297;SDS011;133;49.626;9.680;2022-09-03T03:00:05;3.67;;;3.47;;
297;SDS011;133;49.626;9.680;2022-09-03T03:02:32;3.63;;;3.03;;
297;SDS011;133;49.626;9.680;2022-09-03T03:04:58;3.20;;;3.00;;
297;SDS011;133;49.626;9.680;2022-09-03T03:07:23;3.20;;;3.00;;
297;SDS011;133;49.626;9.680;2022-09-03T03:09:50;3.47;;;3.27;;
297;SDS011;133;49.626;9.680;2022-09-03T03:12:16;2.80;;;2.60;;
297;SDS011;133;49.626;9.680;2022-09-03T03:14:42;2.93;;;2.73;;
297;SDS011;133;49.626;9.680;2022-09-03T03:17:08;3.23;;;3.03;;
297;SDS011;133;49.626;9.680;2022-09-03T03:19:33;3.20;;;3.00;;
297;SDS011;133;49.626;9.680;2022-09-03T03:22:00;3.17;;;2.97;;
297;SDS011;133;49.626;9.680;2022-09-03T03:24:25;3.20;;;3.00;;
297;SDS011;133;49.626;9.680;2022-09-03T03:26:53;3.53;;;3.20;;
297;SDS011;133;49.626;9.680;2022-09-03T03:29:22;3.10;;;2.90;;
297;SDS011;133;49.626;9.680;2022-09-03T03:31:49;3.00;;;2.80;;
297;SDS011;133;49.626;9.680;2022-09-03T03:34:15;3.40;;;3.20;;
297;SDS011;133;49.626;9.680;2022-09-03T03:36:40;3.70;;;3.37;;
297;SDS011;133;49.626;9.680;2022-09-03T03:39:06;3.17;;;2.97;;
297;SDS011;133;49.626;9.680;2022-09-03T03:41:32;3.27;;;3.07;;
297;SDS011;133;49.626;9.680;2022-09-03T03:44:03;3.20;;;3.00;;
297;SDS011;133;49.626;9.680;2022-09-03T03:46:32;3.10;;;2.90;;
297;SDS011;133;49.626;9.680;2022-09-03T03:49:02;3.20;;;2.90;;
297;SDS011;133;49.626;9.680;2022-09-03T03:51:30;4.37;;;3.20;;
297;SDS011;133;49.626;9.680;2022-09-03T03:53:56;3.30;;;3.10;;
297;SDS011;133;49.626;9.680;2022-09-03T03:56:23;5.93;;;3.63;;
297;SDS011;133;49.626;9.680;2022-09-03T03:58:50;6.17;;;3.10;;
297;SDS011;133;49.626;9.680;2022-09-03T04:01:18;3.20;;;3.00;;
297;SDS011;133;49.626;9.680;2022-09-03T04:03:45;4.70;;;3.27;;
297;SDS011;133;49.626;9.680;2022-09-03T04:06:12;3.07;;;2.83;;
297;SDS011;133;49.626;9.680;2022-09-03T04:08:40;3.30;;;3.10;;
297;SDS011;133;49.626;9.680;2022-09-03T04:11:08;4.00;;;3.40;;
297;SDS011;133;49.626;9.680;2022-09-03T04:13:39;3.60;;;3.40;;
297;SDS011;133;49.626;9.680;2022-09-03T04:16:26;3.23;;;2.90;;
297;SDS011;133;49.626;9.680;2022-09-03T04:18:52;3.37;;;3.13;;
297;SDS011;133;49.626;9.680;2022-09-03T04:21:20;3.23;;;3.03;;
297;SDS011;133;49.626;9.680;2022-09-03T04:23:48;3.40;;;3.27;;
297;SDS011;133;49.626;9.680;2022-09-03T04:26:19;3.77;;;3.10;;
297;SDS011;133;49.626;9.680;2022-09-03T04:28:48;3.60;;;2.87;;
297;SDS011;133;49.626;9.680;2022-09-03T04:31:16;3.97;;;3.10;;
297;SDS011;133;49.626;9.680;2022-09-03T04:33:43;3.50;;;3.30;;
297;SDS011;133;49.626;9.680;2022-09-03T04:36:13;5.90;;;3.10;;
297;SDS011;133;49.626;9.680;2022-09-03T04:38:41;3.63;;;2.83;;
297;SDS011;133;49.626;9.680;2022-09-03T04:41:10;3.60;;;3.47;;
297;SDS011;133;49.626;9.680;2022-09-03T04:43:36;3.20;;;3.00;;
297;SDS011;133;49.626;9.680;2022-09-03T04:46:03;3.37;;;3.17;;
297;SDS011;133;49.626;9.680;2022-09-03T04:48:30;3.50;;;3.30;;
297;SDS011;133;49.626;9.680;2022-09-03T04:51:01;3.10;;;2.90;;
297;SDS011;133;49.626;9.680;2022-09-03T04:53:38;2.97;;;2.77;;
297;SDS011;133;49.626;9.680;2022-09-03T04:56:16;4.07;;;3.87;;
297;SDS011;133;49.626;9.680;2022-09-03T04:58:56;3.77;;;2.77;;
297;SDS011;133;49.626;9.680;2022-09-03T05:01:27;3.40;;;3.20;;
297;SDS011;133;49.626;9.680;2022-09-03T05:03:54;4.13;;;3.73;;
297;SDS011;133;49.626;9.680;2022-09-03T05:06:20;3.40;;;3.20;;
297;SDS011;133;49.626;9.680;2022-09-03T05:08:47;8.97;;;3.53;;
297;SDS011;133;49.626;9.680;2022-09-03T05:11:13;3.13;;;2.93;;
297;SDS011;133;49.626;9.680;2022-09-03T05:13:39;3.73;;;3.60;;
297;SDS011;133;49.626;9.680;2022-09-03T05:16:10;4.50;;;3.40;;
297;SDS011;133;49.626;9.680;2022-09-03T05:18:37;3.40;;;3.20;;
297;SDS011;133;49.626;9.680;2022-09-03T05:21:10;3.47;;;2.97;;
297;SDS011;133;49.626;9.680;2022-09-03T05:23:41;3.70;;;3.20;;
297;SDS011;133;49.626;9.680;2022-09-03T05:26:09;5.50;;;3.33;;
297;SDS011;133;49.626;9.680;2022-09-03T05:28:37;3.83;;;3.10;;
297;SDS011;133;49.626;9.680;2022-09-03T05:31:05;3.20;;;3.00;;
297;SDS011;133;49.626;9.680;2022-09-03T05:33:46;3.93;;;3.20;;
297;SDS011;133;49.626;9.680;2022-09-03T05:36:14;3.20;;;3.00;;
297;SDS011;133;49.626;9.680;2022-09-03T05:38:42;3.67;;;3.20;;
297;SDS011;133;49.626;9.680;2022-09-03T05:41:08;3.30;;;3.10;;
297;SDS011;133;49.626;9.680;2022-09-03T05:43:35;3.03;;;2.83;;
297;SDS011;133;49.626;9.680;2022-09-03T05:46:02;3.57;;;3.37;;
297;SDS011;133;49.626;9.680;2022-09-03T05:48:30;3.30;;;3.10;;
297;SDS011;133;49.626;9.680;2022-09-03T05:51:06;3.50;;;3.30;;
297;SDS011;133;49.626;9.680;2022-09-03T05:53:37;3.13;;;2.80;;
297;SDS011;133;49.626;9.680;2022-09-03T05:56:05;3.50;;;3.00;;
297;SDS011;133;49.626;9.680;2022-09-03T05:58:44;4.33;;;3.00;;
297;SDS011;133;49.626;9.680;2022-09-03T06:01:12;3.20;;;2.90;;
297;SDS011;133;49.626;9.680;2022-09-03T06:03:38;3.27;;;3.07;;
297;SDS011;133;49.626;9.680;2022-09-03T06:06:05;3.10;;;2.90;;
297;SDS011;133;49.626;9.680;2022-09-03T06:08:32;3.03;;;2.83;;
297;SDS011;133;49.626;9.680;2022-09-03T06:11:00;3.53;;;3.33;;
297;SDS011;133;49.626;9.680;2022-09-03T06:13:28;3.60;;;3.40;;
297;SDS011;133;49.626;9.680;2022-09-03T06:15:55;3.57;;;3.10;;
297;SDS011;133;49.626;9.680;2022-09-03T06:18:21;4.00;;;3.33;;
297;SDS011;133;49.626;9.680;2022-09-03T06:20:57;3.73;;;3.53;;
297;SDS011;133;49.626;9.680;2022-09-03T06:23:28;4.97;;;2.70;;
297;SDS011;133;49.626;9.680;2022-09-03T06:25:58;3.10;;;2.90;;
297;SDS011;133;49.626;9.680;2022-09-03T06:28:25;3.00;;;2.80;;
297;SDS011;133;49.626;9.680;2022-09-03T06:30:51;3.93;;;3.13;;
297;SDS011;133;49.626;9.680;2022-09-03T06:33:17;4.30;;;3.00;;
297;SDS011;133;49.626;9.680;2022-09-03T06:35:43;3.03;;;2.83;;
297;SDS011;133;49.626;9.680;2022-09-03T06:38:10;3.33;;;3.13;;
297;SDS011;133;49.626;9.680;2022-09-03T06:40:36;3.57;;;3.37;;
297;SDS011;133;49.626;9.680;2022-09-03T06:43:02;3.50;;;3.17;;
297;SDS011;133;49.626;9.680;2022-09-03T06:45:29;3.13;;;2.97;;
297;SDS011;133;49.626;9.680;2022-09-03T06:47:55;3.70;;;3.43;;
297;SDS011;133;49.626;9.680;2022-09-03T06:50:20;3.33;;;3.10;;
297;SDS011;133;49.626;9.680;2022-09-03T06:52:50;3.17;;;2.97;;
297;SDS011;133;49.626;9.680;2022-09-03T06:55:19;3.70;;;3.50;;
297;SDS011;133;49.626;9.680;2022-09-03T06:57:46;3.27;;;3.07;;
297;SDS011;133;49.626;9.680;2022-09-03T07:00:12;3.30;;;3.10;;
297;SDS011;133;49.626;9.680;2022-09-03T07:02:38;3.00;;;2.80;;
297;SDS011;133;49.626;9.680;2022-09-03T07:05:05;3.57;;;3.10;;
297;SDS011;133;49.626;9.680;2022-09-03T07:07:32;3.37;;;3.17;;
297;SDS011;133;49.626;9.680;2022-09-03T07:09:58;3.80;;;3.20;;
297;SDS011;133;49.626;9.680;2022-09-03T07:12:23;3.93;;;3.00;;
297;SDS011;133;49.626;9.680;2022-09-03T07:14:49;3.00;;;2.80;;
297;SDS011;133;49.626;9.680;2022-09-03T07:17:14;3.30;;;3.10;;
297;SDS011;133;49.626;9.680;2022-09-03T07:19:40;3.23;;;3.10;;
297;SDS011;133;49.626;9.680;2022-09-03T07:22:06;3.70;;;3.13;;
297;SDS011;133;49.626;9.680;2022-09-03T07:24:34;5.07;;;2.90;;
297;SDS011;133;49.626;9.680;2022-09-03T07:27:01;3.63;;;3.03;;
297;SDS011;133;49.626;9.680;2022-09-03T07:29:29;3.10;;;2.90;;
297;SDS011;133;49.626;9.680;2022-09-03T07:31:55;3.00;;;2.80;;
297;SDS011;133;49.626;9.680;2022-09-03T07:34:21;3.20;;;3.00;;
297;SDS011;133;49.626;9.680;2022-09-03T07:36:50;3.00;;;2.80;;
297;SDS011;133;49.626;9.680;2022-09-03T07:39:16;3.67;;;3.07;;
297;SDS011;133;49.626;9.680;2022-09-03T07:41:43;2.93;;;2.73;;
297;SDS011;133;49.626;9.680;2022-09-03T07:44:12;3.10;;;2.93;;
297;SDS011;133;49.626;9.680;2022-09-03T07:46:40;3.47;;;3.27;;
297;SDS011;133;49.626;9.680;2022-09-03T07:49:07;3.33;;;2.83;;
297;SDS011;133;49.626;9.680;2022-09-03T07:51:34;3.13;;;2.97;;
297;SDS011;133;49.626;9.680;2022-09-03T07:54:01;6.23;;;3.70;;
297;SDS011;133;49.626;9.680;2022-09-03T07:56:31;3.17;;;2.97;;
297;SDS011;133;49.626;9.680;2022-09-03T07:58:59;4.67;;;3.10;;
297;SDS011;133;49.626;9.680;2022-09-03T08:01:26;3.43;;;2.70;;
297;SDS011;133;49.626;9.680;2022-09-03T08:03:53;4.10;;;2.97;;
297;SDS011;133;49.626;9.680;2022-09-03T08:06:20;2.83;;;2.63;;
297;SDS011;133;49.626;9.680;2022-09-03T08:08:48;2.93;;;2.77;;
297;SDS011;133;49.626;9.680;2022-09-03T08:11:20;3.47;;;3.27;;
297;SDS011;133;49.626;9.680;2022-09-03T08:13:52;3.20;;;2.80;;
297;SDS011;133;49.626;9.680;2022-09-03T08:16:25;3.13;;;3.00;;
297;SDS011;133;49.626;9.680;2022-09-03T08:18:52;2.73;;;2.53;;
297;SDS011;133;49.626;9.680;2022-09-03T08:21:18;3.40;;;2.63;;
297;SDS011;133;49.626;9.680;2022-09-03T08:23:49;3.73;;;2.97;;
297;SDS011;133;49.626;9.680;2022-09-03T08:26:16;3.00;;;2.80;;
297;SDS011;133;49.626;9.680;2022-09-03T08:28:43;3.00;;;2.80;;
297;SDS011;133;49.626;9.680;2022-09-03T08:31:13;3.23;;;3.10;;
297;SDS011;133;49.626;9.680;2022-09-03T08:33:42;3.00;;;2.73;;
297;SDS011;133;49.626;9.680;2022-09-03T08:38:40;3.33;;;3.13;;
297;SDS011;133;49.626;9.680;2022-09-03T08:49:51;3.40;;;3.20;;
297;SDS011;133;49.626;9.680;2022-09-03T08:52:23;3.00;;;2.80;;
297;SDS011;133;49.626;9.680;2022-09-03T08:54:54;2.80;;;2.67;;
297;SDS011;133;49.626;9.680;2022-09-03T08:57:42;3.10;;;2.90;;
297;SDS011;133;49.626;9.680;2022-09-03T09:00:18;2.83;;;2.63;;
297;SDS011;133;49.626;9.680;2022-09-03T09:10:46;3.10;;;2.93;;
297;SDS011;133;49.626;9.680;2022-09-03T09:13:27;3.97;;;3.00;;
297;SDS011;133;49.626;9.680;2022-09-03T09:16:42;3.20;;;3.00;;
297;SDS011;133;49.626;9.680;2022-09-03T09:21:41;3.07;;;2.87;;
297;SDS011;133;49.626;9.680;2022-09-03T09:24:34;3.40;;;3.20;;
297;SDS011;133;49.626;9.680;2022-09-03T09:27:12;7.93;;;3.30;;
297;SDS011;133;49.626;9.680;2022-09-03T09:29:42;3.20;;;2.83;;
297;SDS011;133;49.626;9.680;2022-09-03T09:32:12;4.00;;;3.10;;
297;SDS011;133;49.626;9.680;2022-09-03T09:34:41;2.90;;;2.70;;
297;SDS011;133;49.626;9.680;2022-09-03T09:37:09;5.00;;;3.40;;
297;SDS011;133;49.626;9.680;2022-09-03T09:39:37;7.33;;;3.20;;
297;SDS011;133;49.626;9.680;2022-09-03T09:42:05;4.30;;;3.20;;
297;SDS011;133;49.626;9.680;2022-09-03T09:44:38;3.07;;;2.87;;
297;SDS011;133;49.626;9.680;2022-09-03T09:47:27;3.10;;;2.90;;
297;SDS011;133;49.626;9.680;2022-09-03T09:49:58;3.20;;;3.00;;
297;SDS011;133;49.626;9.680;2022-09-03T09:52:27;3.50;;;3.30;;
297;SDS011;133;49.626;9.680;2022-09-03T09:55:05;3.07;;;2.87;;
297;SDS011;133;49.626;9.680;2022-09-03T09:57:34;3.07;;;2.90;;
297;SDS011;133;49.626;9.680;2022-09-03T10:00:05;4.30;;;3.03;;
297;SDS011;133;49.626;9.680;2022-09-03T10:02:35;3.13;;;2.93;;
297;SDS011;133;49.626;9.680;2022-09-03T10:05:14;3.83;;;2.80;;
297;SDS011;133;49.626;9.680;2022-09-03T10:08:05;3.93;;;3.10;;
297;SDS011;133;49.626;9.680;2022-09-03T10:10:43;3.60;;;3.20;;
297;SDS011;133;49.626;9.680;2022-09-03T10:13:16;3.47;;;3.27;;
297;SDS011;133;49.626;9.680;2022-09-03T10:15:54;3.50;;;3.30;;
297;SDS011;133;49.626;9.680;2022-09-03T10:18:46;3.30;;;3.10;;
297;SDS011;133;49.626;9.680;2022-09-03T10:21:49;3.63;;;3.43;;
297;SDS011;133;49.626;9.680;2022-09-03T10:27:10;6.17;;;3.60;;
297;SDS011;133;49.626;9.680;2022-09-03T10:29:40;4.30;;;4.00;;
297;SDS011;133;49.626;9.680;2022-09-03T10:32:09;3.63;;;3.30;;
297;SDS011;133;49.626;9.680;2022-09-03T10:40:38;3.60;;;3.40;;
297;SDS011;133;49.626;9.680;2022-09-03T10:54:15;4.33;;;3.40;;
297;SDS011;133;49.626;9.680;2022-09-03T11:04:55;3.80;;;3.60;;
297;SDS011;133;49.626;9.680;2022-09-03T11:07:57;4.63;;;3.70;;
297;SDS011;133;49.626;9.680;2022-09-03T11:10:25;4.27;;;3.40;;
297;SDS011;133;49.626;9.680;2022-09-03T11:18:35;3.50;;;3.30;;
297;SDS011;133;49.626;9.680;2022-09-03T11:20:49;4.23;;;3.60;;
297;SDS011;133;49.626;9.680;2022-09-03T11:23:18;6.00;;;3.50;;
297;SDS011;133;49.626;9.680;2022-09-03T11:25:49;4.37;;;3.20;;
297;SDS011;133;49.626;9.680;2022-09-03T11:28:24;3.40;;;3.20;;
297;SDS011;133;49.626;9.680;2022-09-03T11:36:39;7.83;;;3.77;;
297;SDS011;133;49.626;9.680;2022-09-03T11:44:23;7.50;;;4.17;;
297;SDS011;133;49.626;9.680;2022-09-03T11:47:20;4.37;;;3.77;;
297;SDS011;133;49.626;9.680;2022-09-03T11:49:51;4.63;;;3.33;;
297;SDS011;133;49.626;9.680;2022-09-03T11:52:28;4.30;;;3.53;;
297;SDS011;133;49.626;9.680;2022-09-03T11:55:04;5.77;;;3.63;;
297;SDS011;133;49.626;9.680;2022-09-03T11:57:31;3.80;;;3.60;;
297;SDS011;133;49.626;9.680;2022-09-03T12:00:11;4.40;;;4.10;;
297;SDS011;133;49.626;9.680;2022-09-03T12:02:49;3.33;;;2.93;;
297;SDS011;133;49.626;9.680;2022-09-03T12:14:01;3.67;;;3.47;;
297;SDS011;133;49.626;9.680;2022-09-03T12:16:40;4.60;;;3.30;;
297;SDS011;133;49.626;9.680;2022-09-03T12:19:36;4.63;;;3.70;;
297;SDS011;133;49.626;9.680;2022-09-03T12:22:23;6.70;;;4.20;;
297;SDS011;133;49.626;9.680;2022-09-03T12:24:51;4.90;;;4.00;;
297;SDS011;133;49.626;9.680;2022-09-03T12:27:18;4.47;;;3.73;;
297;SDS011;133;49.626;9.680;2022-09-03T12:30:02;4.33;;;3.73;;
297;SDS011;133;49.626;9.680;2022-09-03T12:34:56;4.27;;;3.70;;
297;SDS011;133;49.626;9.680;2022-09-03T12:37:25;5.83;;;5.40;;
297;SDS011;133;49.626;9.680;2022-09-03T12:40:00;3.87;;;3.67;;
297;SDS011;133;49.626;9.680;2022-09-03T12:42:26;4.70;;;4.07;;
297;SDS011;133;49.626;9.680;2022-09-03T12:44:54;8.80;;;3.80;;
297;SDS011;133;49.626;9.680;2022-09-03T12:47:21;4.20;;;3.53;;
297;SDS011;133;49.626;9.680;2022-09-03T12:49:49;3.63;;;3.43;;
297;SDS011;133;49.626;9.680;2022-09-03T13:00:32;3.87;;;3.57;;
297;SDS011;133;49.626;9.680;2022-09-03T13:03:11;7.80;;;3.93;;
297;SDS011;133;49.626;9.680;2022-09-03T13:05:45;4.53;;;3.47;;
297;SDS011;133;49.626;9.680;2022-09-03T13:08:16;4.80;;;3.40;;
297;SDS011;133;49.626;9.680;2022-09-03T13:10:48;5.53;;;3.87;;
297;SDS011;133;49.626;9.680;2022-09-03T13:13:24;3.83;;;3.33;;
297;SDS011;133;49.626;9.680;2022-09-03T13:27:22;7.47;;;4.47;;
297;SDS011;133;49.626;9.680;2022-09-03T13:35:53;3.77;;;3.53;;
297;SDS011;133;49.626;9.680;2022-09-03T13:41:20;3.67;;;3.47;;
297;SDS011;133;49.626;9.680;2022-09-03T13:46:53;3.67;;;3.50;;
297;SDS011;133;49.626;9.680;2022-09-03T13:52:23;3.73;;;3.60;;
297;SDS011;133;49.626;9.680;2022-09-03T13:55:41;3.90;;;3.70;;
297;SDS011;133;49.626;9.680;2022-09-03T13:58:04;5.20;;;3.50;;
297;SDS011;133;49.626;9.680;2022-09-03T14:00:45;5.03;;;3.33;;
297;SDS011;133;49.626;9.680;2022-09-03T14:03:42;4.83;;;3.20;;
297;SDS011;133;49.626;9.680;2022-09-03T14:06:23;8.43;;;3.90;;
297;SDS011;133;49.626;9.680;2022-09-03T14:12:01;5.40;;;3.70;;
297;SDS011;133;49.626;9.680;2022-09-03T14:14:55;3.57;;;3.33;;
297;SDS011;133;49.626;9.680;2022-09-03T14:17:56;3.57;;;3.40;;
297;SDS011;133;49.626;9.680;2022-09-03T14:20:54;3.90;;;3.40;;
297;SDS011;133;49.626;9.680;2022-09-03T14:26:14;5.57;;;3.93;;
297;SDS011;133;49.626;9.680;2022-09-03T14:28:48;4.20;;;3.80;;
297;SDS011;133;49.626;9.680;2022-09-03T14:34:38;6.40;;;3.70;;
297;SDS011;133;49.626;9.680;2022-09-03T14:37:38;4.20;;;3.67;;
297;SDS011;133;49.626;9.680;2022-09-03T14:40:24;4.00;;;3.83;;
297;SDS011;133;49.626;9.680;2022-09-03T14:56:25;3.67;;;3.47;;
297;SDS011;133;49.626;9.680;2022-09-03T15:02:14;4.43;;;4.13;;
297;SDS011;133;49.626;9.680;2022-09-03T15:07:26;3.70;;;3.50;;
297;SDS011;133;49.626;9.680;2022-09-03T15:10:30;4.17;;;3.60;;
297;SDS011;133;49.626;9.680;2022-09-03T15:15:26;3.93;;;3.77;;
297;SDS011;133;49.626;9.680;2022-09-03T15:20:49;3.70;;;3.50;;
297;SDS011;133;49.626;9.680;2022-09-03T15:37:17;2.97;;;2.77;;
297;SDS011;133;49.626;9.680;2022-09-03T15:39:47;3.53;;;3.33;;
297;SDS011;133;49.626;9.680;2022-09-03T15:42:26;3.57;;;3.37;;
297;SDS011;133;49.626;9.680;2022-09-03T15:44:53;3.33;;;3.13;;
297;SDS011;133;49.626;9.680;2022-09-03T15:50:08;4.33;;;3.10;;
297;SDS011;133;49.626;9.680;2022-09-03T15:55:42;3.80;;;3.30;;
297;SDS011;133;49.626;9.680;2022-09-03T16:00:50;3.50;;;3.30;;
297;SDS011;133;49.626;9.680;2022-09-03T16:03:38;3.70;;;3.50;;
297;SDS011;133;49.626;9.680;2022-09-03T16:06:45;3.20;;;3.00;;
297;SDS011;133;49.626;9.680;2022-09-03T16:09:50;4.70;;;3.67;;
297;SDS011;133;49.626;9.680;2022-09-03T16:12:09;2.93;;;2.73;;
297;SDS011;133;49.626;9.680;2022-09-03T16:15:50;3.17;;;3.00;;
297;SDS011;133;49.626;9.680;2022-09-03T16:18:01;3.30;;;3.13;;
297;SDS011;133;49.626;9.680;2022-09-03T16:20:57;4.80;;;3.30;;
297;SDS011;133;49.626;9.680;2022-09-03T16:23:37;3.03;;;2.83;;
297;SDS011;133;49.626;9.680;2022-09-03T16:26:28;2.80;;;2.60;;
297;SDS011;133;49.626;9.680;2022-09-03T16:29:00;3.40;;;3.03;;
297;SDS011;133;49.626;9.680;2022-09-03T16:55:49;4.60;;;4.30;;
297;SDS011;133;49.626;9.680;2022-09-03T16:58:38;4.27;;;3.57;;
297;SDS011;133;49.626;9.680;2022-09-03T17:04:05;5.23;;;3.80;;
297;SDS011;133;49.626;9.680;2022-09-03T17:09:42;6.23;;;3.80;;
297;SDS011;133;49.626;9.680;2022-09-03T17:20:47;6.97;;;3.33;;
297;SDS011;133;49.626;9.680;2022-09-03T17:26:28;3.40;;;3.13;;
297;SDS011;133;49.626;9.680;2022-09-03T17:31:53;5.80;;;3.73;;
297;SDS011;133;49.626;9.680;2022-09-03T17:45:09;3.90;;;3.70;;
297;SDS011;133;49.626;9.680;2022-09-03T17:47:46;3.33;;;3.17;;
297;SDS011;133;49.626;9.680;2022-09-03T17:53:38;3.87;;;3.47;;
297;SDS011;133;49.626;9.680;2022-09-03T18:02:01;6.13;;;4.20;;
297;SDS011;133;49.626;9.680;2022-09-03T18:04:47;4.87;;;3.10;;
297;SDS011;133;49.626;9.680;2022-09-03T18:10:24;3.10;;;2.90;;
297;SDS011;133;49.626;9.680;2022-09-03T18:13:24;3.20;;;3.00;;
297;SDS011;133;49.626;9.680;2022-09-03T18:16:18;3.40;;;3.20;;
297;SDS011;133;49.626;9.680;2022-09-03T18:18:50;3.00;;;2.80;;
297;SDS011;133;49.626;9.680;2022-09-03T18:21:21;3.27;;;3.10;;
297;SDS011;133;49.626;9.680;2022-09-03T18:27:09;4.57;;;3.23;;
297;SDS011;133;49.626;9.680;2022-09-03T18:30:05;3.53;;;3.37;;
297;SDS011;133;49.626;9.680;2022-09-03T18:32:50;4.17;;;2.80;;
297;SDS011;133;49.626;9.680;2022-09-03T18:35:35;3.50;;;3.03;;
297;SDS011;133;49.626;9.680;2022-09-03T18:38:23;3.80;;;3.60;;
297;SDS011;133;49.626;9.680;2022-09-03T18:41:13;4.13;;;3.80;;
297;SDS011;133;49.626;9.680;2022-09-03T18:44:10;4.60;;;3.37;;
297;SDS011;133;49.626;9.680;2022-09-03T18:47:08;3.70;;;3.50;;
297;SDS011;133;49.626;9.680;2022-09-03T18:53:09;3.30;;;3.10;;
297;SDS011;133;49.626;9.680;2022-09-03T18:55:57;4.97;;;3.57;;
297;SDS011;133;49.626;9.680;2022-09-03T19:01:57;4.50;;;4.10;;
297;SDS011;133;49.626;9.680;2022-09-03T19:23:42;5.97;;;5.67;;
297;SDS011;133;49.626;9.680;2022-09-03T19:26:33;6.13;;;4.73;;
297;SDS011;133;49.626;9.680;2022-09-03T19:29:35;3.77;;;3.57;;
297;SDS011;133;49.626;9.680;2022-09-03T19:32:33;5.10;;;4.70;;
297;SDS011;133;49.626;9.680;2022-09-03T19:35:45;8.30;;;5.50;;
297;SDS011;133;49.626;9.680;2022-09-03T19:42:45;7.43;;;5.47;;
297;SDS011;133;49.626;9.680;2022-09-03T19:48:18;6.20;;;5.07;;
297;SDS011;133;49.626;9.680;2022-09-03T19:54:32;5.90;;;5.60;;
297;SDS011;133;49.626;9.680;2022-09-03T19:57:18;6.33;;;5.10;;
297;SDS011;133;49.626;9.680;2022-09-03T20:00:03;5.30;;;5.00;;
297;SDS011;133;49.626;9.680;2022-09-03T20:02:48;4.87;;;4.57;;
297;SDS011;133;49.626;9.680;2022-09-03T20:05:33;5.90;;;4.73;;
297;SDS011;133;49.626;9.680;2022-09-03T20:08:20;5.67;;;4.60;;
297;SDS011;133;49.626;9.680;2022-09-03T20:11:05;5.17;;;4.87;;
297;SDS011;133;49.626;9.680;2022-09-03T20:13:41;4.90;;;4.60;;
297;SDS011;133;49.626;9.680;2022-09-03T20:16:43;5.53;;;4.83;;
297;SDS011;133;49.626;9.680;2022-09-03T20:19:26;4.87;;;4.60;;
297;SDS011;133;49.626;9.680;2022-09-03T20:32:59;4.63;;;4.33;;
297;SDS011;133;49.626;9.680;2022-09-03T20:40:48;5.70;;;4.80;;
297;SDS011;133;49.626;9.680;2022-09-03T20:52:03;5.17;;;4.90;;
297;SDS011;133;49.626;9.680;2022-09-03T20:55:04;4.90;;;4.60;;
297;SDS011;133;49.626;9.680;2022-09-03T20:57:50;5.67;;;4.17;;
297;SDS011;133;49.626;9.680;2022-09-03T21:00:22;5.30;;;4.67;;
297;SDS011;133;49.626;9.680;2022-09-03T21:02:55;4.67;;;4.37;;
297;SDS011;133;49.626;9.680;2022-09-03T21:08:34;5.03;;;4.57;;
297;SDS011;133;49.626;9.680;2022-09-03T21:11:09;8.73;;;4.97;;
297;SDS011;133;49.626;9.680;2022-09-03T21:13:41;4.57;;;4.27;;
297;SDS011;133;49.626;9.680;2022-09-03T21:24:25;5.77;;;4.80;;
297;SDS011;133;49.626;9.680;2022-09-03T21:27:00;5.27;;;4.97;;
297;SDS011;133;49.626;9.680;2022-09-03T21:29:38;6.73;;;4.53;;
297;SDS011;133;49.626;9.680;2022-09-03T21:32:09;4.67;;;4.40;;
297;SDS011;133;49.626;9.680;2022-09-03T21:34:51;5.20;;;4.90;;
297;SDS011;133;49.626;9.680;2022-09-03T21:37:27;4.73;;;4.43;;
297;SDS011;133;49.626;9.680;2022-09-03T21:39:59;5.70;;;5.20;;
297;SDS011;133;49.626;9.680;2022-09-03T21:45:13;4.77;;;4.57;;
297;SDS011;133;49.626;9.680;2022-09-03T21:48:05;5.37;;;5.13;;
297;SDS011;133;49.626;9.680;2022-09-03T21:53:32;4.63;;;4.33;;
297;SDS011;133;49.626;9.680;2022-09-03T22:04:31;5.17;;;4.87;;
297;SDS011;133;49.626;9.680;2022-09-03T22:09:45;5.73;;;4.97;;
297;SDS011;133;49.626;9.680;2022-09-03T22:14:56;7.77;;;5.10;;
297;SDS011;133;49.626;9.680;2022-09-03T22:20:18;5.00;;;4.70;;
297;SDS011;133;49.626;9.680;2022-09-03T22:25:29;4.80;;;4.47;;
297;SDS011;133;49.626;9.680;2022-09-03T22:28:22;6.83;;;4.53;;
297;SDS011;133;49.626;9.680;2022-09-03T22:30:54;5.03;;;4.63;;
297;SDS011;133;49.626;9.680;2022-09-03T22:36:15;4.77;;;4.47;;
297;SDS011;133;49.626;9.680;2022-09-03T22:42:03;5.40;;;5.10;;
297;SDS011;133;49.626;9.680;2022-09-03T22:53:17;5.00;;;4.70;;
297;SDS011;133;49.626;9.680;2022-09-03T22:58:50;5.57;;;5.00;;
297;SDS011;133;49.626;9.680;2022-09-03T23:05:08;4.60;;;4.30;;
297;SDS011;133;49.626;9.680;2022-09-03T23:10:07;6.17;;;4.73;;
297;SDS011;133;49.626;9.680;2022-09-03T23:12:49;5.47;;;4.77;;
297;SDS011;133;49.626;9.680;2022-09-03T23:15:32;5.00;;;4.33;;
297;SDS011;133;49.626;9.680;2022-09-03T23:20:26;8.43;;;4.90;;
297;SDS011;133;49.626;9.680;2022-09-03T23:22:56;4.70;;;4.40;;
297;SDS011;133;49.626;9.680;2022-09-03T23:25:37;5.80;;;4.43;;